Virtual Airlines Manager

 METAR AND TAF INFORMATION
METAR FOR GMMN
ADDS - METARS form results

(0849 UTC 18 February 2018)
Data provider http://aviationweather.gov/adds/metars/
 
METAR text: GMMN 180834Z 11004KT 5000 FEW006 09/08 Q1021 NOSIG B2
Conditions at: GMMN (NOUASSEUR/CASABL, MA) observed 0834 UTC 18 February 2018
Temperature: 9.0°C (48°F)
Dewpoint: 8.0°C (46°F) [RH = 93%]
Pressure (altimeter): 30.15 inches Hg (1021.0 mb)
Winds: from the ESE (110 degrees) at 5 MPH (4 knots; 2.1 m/s)
Visibility: 3 miles (5 km)
Ceiling: at least 12,000 feet AGL
Clouds: few clouds at 600 feet AGL
Weather: no significant weather observed at this time

METAR text: GMMN 180830Z 12003KT 2000 BR SCT004 08/07 Q1021 NOSIG
Conditions at: GMMN (NOUASSEUR/CASABL, MA) observed 0830 UTC 18 February 2018
Temperature: 8.0°C (46°F)
Dewpoint: 7.0°C (45°F) [RH = 93%]
Pressure (altimeter): 30.15 inches Hg (1021.0 mb)
Winds: from the ESE (120 degrees) at 3 MPH (3 knots; 1.6 m/s)
Visibility: 1.24 miles (2.00 km)
Ceiling: at least 12,000 feet AGL
Clouds: scattered clouds at 400 feet AGL
Weather: BR  (mist)

METAR text: GMMN 180815Z 12004KT 2000 BR SCT004 08/07 Q1021 NOSIG B2
Conditions at: GMMN (NOUASSEUR/CASABL, MA) observed 0815 UTC 18 February 2018
Temperature: 8.0°C (46°F)
Dewpoint: 7.0°C (45°F) [RH = 93%]
Pressure (altimeter): 30.15 inches Hg (1021.0 mb)
Winds: from the ESE (120 degrees) at 5 MPH (4 knots; 2.1 m/s)
Visibility: 1.24 miles (2.00 km)
Ceiling: at least 12,000 feet AGL
Clouds: scattered clouds at 400 feet AGL
Weather: BR  (mist)

METAR text: GMMN 180800Z 12004KT 0300 R35R/0350V0750U FG SCT003 06/06 Q1021
Conditions at: GMMN (NOUASSEUR/CASABL, MA) observed 0800 UTC 18 February 2018
Temperature: 6.0°C (43°F)
Dewpoint: 6.0°C (43°F) [RH = 100%]
Pressure (altimeter): 30.15 inches Hg (1021.0 mb)
Winds: from the ESE (120 degrees) at 5 MPH (4 knots; 2.1 m/s)
Visibility: 0.19 miles (0.31 km)
Ceiling: at least 12,000 feet AGL
Clouds: scattered clouds at 300 feet AGL
Weather: FG  (fog)

Forecast for: GMMN (NOUASSEUR/CASABL, MA)
Text: TAF GMMN 180500Z 1806/1912 04006KT 6000 SCT016
Forecast period: 0600 to 1000 UTC 18 February 2018
Forecast type: FROM: standard forecast or significant change
Winds: from the NE (40 degrees) at 7 MPH (6 knots; 3.1 m/s)
Visibility: 4 miles (6 km)
Clouds: scattered clouds at 1600 feet AGL
Weather: no significant weather forecast for this period
Text: BECMG 1810/1812 34012KT 9999 SCT016
Forecast period: 1000 to 2000 UTC 18 February 2018
Forecast type: BECOMING: Conditions expected to become as follows by 1200 UTC 18 February 2018
Winds: from the NNW (340 degrees) at 14 MPH (12 knots; 6.2 m/s)
Visibility: 6 or more miles (10+ km)
Clouds: scattered clouds at 1600 feet AGL
Weather: no significant weather forecast for this period
Text: BECMG 1820/1822 06006KT 8000 SCT008
Forecast period: 2000 UTC 18 February 2018 to 1200 UTC 19 February 2018
Forecast type: BECOMING: Conditions expected to become as follows by 2200 UTC 18 February 2018
Winds: from the ENE (60 degrees) at 7 MPH (6 knots; 3.1 m/s)
Visibility: 5 miles (8 km)
Clouds: scattered clouds at 800 feet AGL
Weather: no significant weather forecast for this period
Text: TEMPO 1902/1906 2000 BR
Forecast period: 0200 to 0600 UTC 19 February 2018
Forecast type: TEMPORARY: The following changes expected for less than half the time period
Visibility: 1.24 miles (2.00 km)
Weather: BR  (mist)

 AIRPORT MAP

 RUNWAY INFORMATION
Runway 17L Runway length 12205 ft Runway width 148 ft
Runway elevation 633 ft Runway displaced threshold 0 ft Runway heading 164
Runway 35R Runway length 12205 ft Runway width 148 ft
Runway elevation 656 ft Runway displaced threshold 0 ft Runway heading 344
Runway 17R Runway length 12205 ft Runway width 148 ft
Runway elevation 636 ft Runway displaced threshold 0 ft Runway heading 164
Runway 35L Runway length 12205 ft Runway width 148 ft
Runway elevation 656 ft Runway displaced threshold 0 ft Runway heading 344

 AIRPORT FREQUENCIES
Type APP Name APP Frequency 121.3 MHZ
Type ATIS Name ATIS Frequency 126.4 MHZ
Type TWR Name TWR Frequency 118.5 MHZ

 AIRPORT NEAR NAVIGATION AIDS
Type VOR-DME Name Casablanca Frequency 114000 KHZ



Powered by Virtual Airlines Manager [v2.6.2]